sensor_id;sensor_type;location;lat;lon;timestamp;temperature;humidity
37658;DHT22;23500;53.268;8.308;2022-08-25T00:01:17;24.40;59.40
37658;DHT22;23500;53.268;8.308;2022-08-25T00:03:43;24.40;59.10
37658;DHT22;23500;53.268;8.308;2022-08-25T00:06:10;24.40;59.10
37658;DHT22;23500;53.268;8.308;2022-08-25T00:08:37;24.40;58.90
37658;DHT22;23500;53.268;8.308;2022-08-25T00:11:17;24.40;58.80
37658;DHT22;23500;53.268;8.308;2022-08-25T00:13:47;24.40;58.80
37658;DHT22;23500;53.268;8.308;2022-08-25T00:16:15;24.40;58.70
37658;DHT22;23500;53.268;8.308;2022-08-25T00:18:43;24.40;58.70
37658;DHT22;23500;53.268;8.308;2022-08-25T00:21:11;24.40;58.50
37658;DHT22;23500;53.268;8.308;2022-08-25T00:23:37;24.40;58.60
37658;DHT22;23500;53.268;8.308;2022-08-25T00:26:03;24.40;58.70
37658;DHT22;23500;53.268;8.308;2022-08-25T00:28:29;24.40;58.60
37658;DHT22;23500;53.268;8.308;2022-08-25T00:30:56;24.30;58.70
37658;DHT22;23500;53.268;8.308;2022-08-25T00:33:23;24.30;58.60
37658;DHT22;23500;53.268;8.308;2022-08-25T00:35:51;24.30;58.70
37658;DHT22;23500;53.268;8.308;2022-08-25T00:38:17;24.30;58.60
37658;DHT22;23500;53.268;8.308;2022-08-25T00:40:43;24.30;58.60
37658;DHT22;23500;53.268;8.308;2022-08-25T00:43:09;24.30;58.70
37658;DHT22;23500;53.268;8.308;2022-08-25T00:45:35;24.20;58.60
37658;DHT22;23500;53.268;8.308;2022-08-25T00:48:01;24.20;58.80
37658;DHT22;23500;53.268;8.308;2022-08-25T00:50:29;24.20;59.10
37658;DHT22;23500;53.268;8.308;2022-08-25T00:52:58;24.20;59.10
37658;DHT22;23500;53.268;8.308;2022-08-25T00:55:28;24.20;59.20
37658;DHT22;23500;53.268;8.308;2022-08-25T00:58:09;24.20;59.20
37658;DHT22;23500;53.268;8.308;2022-08-25T01:00:41;24.20;59.10
37658;DHT22;23500;53.268;8.308;2022-08-25T01:03:07;24.10;59.20
37658;DHT22;23500;53.268;8.308;2022-08-25T01:05:34;24.10;59.10
37658;DHT22;23500;53.268;8.308;2022-08-25T01:08:00;24.10;59.40
37658;DHT22;23500;53.268;8.308;2022-08-25T01:10:31;24.10;59.50
37658;DHT22;23500;53.268;8.308;2022-08-25T01:13:02;24.10;59.40
37658;DHT22;23500;53.268;8.308;2022-08-25T01:15:31;24.00;59.60
37658;DHT22;23500;53.268;8.308;2022-08-25T01:17:58;24.00;59.90
37658;DHT22;23500;53.268;8.308;2022-08-25T01:20:25;24.00;59.50
37658;DHT22;23500;53.268;8.308;2022-08-25T01:22:53;24.00;59.70
37658;DHT22;23500;53.268;8.308;2022-08-25T01:33:59;23.90;59.70
37658;DHT22;23500;53.268;8.308;2022-08-25T01:36:26;23.90;60.10
37658;DHT22;23500;53.268;8.308;2022-08-25T01:38:53;23.90;60.50
37658;DHT22;23500;53.268;8.308;2022-08-25T01:43:57;23.90;60.30
37658;DHT22;23500;53.268;8.308;2022-08-25T01:46:22;23.90;60.40
37658;DHT22;23500;53.268;8.308;2022-08-25T01:48:49;23.90;60.50
37658;DHT22;23500;53.268;8.308;2022-08-25T01:51:15;23.80;60.70
37658;DHT22;23500;53.268;8.308;2022-08-25T01:53:43;23.80;60.60
37658;DHT22;23500;53.268;8.308;2022-08-25T01:56:14;23.80;60.70
37658;DHT22;23500;53.268;8.308;2022-08-25T01:59:15;23.80;60.80
37658;DHT22;23500;53.268;8.308;2022-08-25T02:01:41;23.80;60.50
37658;DHT22;23500;53.268;8.308;2022-08-25T02:04:07;23.70;60.90
37658;DHT22;23500;53.268;8.308;2022-08-25T02:06:34;23.70;60.80
37658;DHT22;23500;53.268;8.308;2022-08-25T02:09:16;23.70;61.30
37658;DHT22;23500;53.268;8.308;2022-08-25T02:11:44;23.70;60.70
37658;DHT22;23500;53.268;8.308;2022-08-25T02:14:41;23.70;61.30
37658;DHT22;23500;53.268;8.308;2022-08-25T02:17:35;23.70;60.90
37658;DHT22;23500;53.268;8.308;2022-08-25T02:20:07;23.70;60.90
37658;DHT22;23500;53.268;8.308;2022-08-25T02:22:34;23.60;61.40
37658;DHT22;23500;53.268;8.308;2022-08-25T02:24:59;23.60;61.60
37658;DHT22;23500;53.268;8.308;2022-08-25T02:27:25;23.60;61.60
37658;DHT22;23500;53.268;8.308;2022-08-25T02:29:50;23.60;61.60
37658;DHT22;23500;53.268;8.308;2022-08-25T02:32:16;23.60;61.60
37658;DHT22;23500;53.268;8.308;2022-08-25T02:34:42;23.60;61.70
37658;DHT22;23500;53.268;8.308;2022-08-25T02:37:08;23.60;61.70
37658;DHT22;23500;53.268;8.308;2022-08-25T02:39:34;23.60;61.90
37658;DHT22;23500;53.268;8.308;2022-08-25T02:42:00;23.60;62.00
37658;DHT22;23500;53.268;8.308;2022-08-25T02:44:25;23.50;61.90
37658;DHT22;23500;53.268;8.308;2022-08-25T02:46:51;23.50;62.20
37658;DHT22;23500;53.268;8.308;2022-08-25T02:49:17;23.50;62.30
37658;DHT22;23500;53.268;8.308;2022-08-25T02:51:43;23.50;62.40
37658;DHT22;23500;53.268;8.308;2022-08-25T02:54:09;23.50;62.50
37658;DHT22;23500;53.268;8.308;2022-08-25T02:56:34;23.50;62.60
37658;DHT22;23500;53.268;8.308;2022-08-25T02:59:00;23.50;62.30
37658;DHT22;23500;53.268;8.308;2022-08-25T03:01:27;23.50;62.70
37658;DHT22;23500;53.268;8.308;2022-08-25T03:03:53;23.50;62.70
37658;DHT22;23500;53.268;8.308;2022-08-25T03:06:21;23.40;62.60
37658;DHT22;23500;53.268;8.308;2022-08-25T03:08:51;23.40;62.80
37658;DHT22;23500;53.268;8.308;2022-08-25T03:11:17;23.40;62.70
37658;DHT22;23500;53.268;8.308;2022-08-25T03:13:43;23.40;62.70
37658;DHT22;23500;53.268;8.308;2022-08-25T03:16:09;23.40;63.00
37658;DHT22;23500;53.268;8.308;2022-08-25T03:18:36;23.40;63.00
37658;DHT22;23500;53.268;8.308;2022-08-25T03:21:03;23.40;63.00
37658;DHT22;23500;53.268;8.308;2022-08-25T03:23:28;23.40;63.20
37658;DHT22;23500;53.268;8.308;2022-08-25T03:25:55;23.40;63.10
37658;DHT22;23500;53.268;8.308;2022-08-25T03:28:39;23.40;63.30
37658;DHT22;23500;53.268;8.308;2022-08-25T03:31:07;23.40;63.90
37658;DHT22;23500;53.268;8.308;2022-08-25T03:33:33;23.30;63.20
37658;DHT22;23500;53.268;8.308;2022-08-25T03:35:59;23.30;63.20
37658;DHT22;23500;53.268;8.308;2022-08-25T03:38:25;23.30;63.60
37658;DHT22;23500;53.268;8.308;2022-08-25T03:40:51;23.30;63.80
37658;DHT22;23500;53.268;8.308;2022-08-25T03:43:17;23.30;63.60
37658;DHT22;23500;53.268;8.308;2022-08-25T03:45:44;23.30;63.70
37658;DHT22;23500;53.268;8.308;2022-08-25T03:48:11;23.30;64.00
37658;DHT22;23500;53.268;8.308;2022-08-25T03:50:43;23.20;64.00
37658;DHT22;23500;53.268;8.308;2022-08-25T03:53:09;23.20;64.20
37658;DHT22;23500;53.268;8.308;2022-08-25T03:55:35;23.20;64.40
37658;DHT22;23500;53.268;8.308;2022-08-25T03:58:00;23.20;64.60
37658;DHT22;23500;53.268;8.308;2022-08-25T04:00:26;23.20;64.70
37658;DHT22;23500;53.268;8.308;2022-08-25T04:02:52;23.20;64.80
37658;DHT22;23500;53.268;8.308;2022-08-25T04:05:18;23.20;65.00
37658;DHT22;23500;53.268;8.308;2022-08-25T04:07:44;23.20;65.10
37658;DHT22;23500;53.268;8.308;2022-08-25T04:10:11;23.20;65.30
37658;DHT22;23500;53.268;8.308;2022-08-25T04:12:37;23.10;65.30
37658;DHT22;23500;53.268;8.308;2022-08-25T04:15:04;23.10;65.50
37658;DHT22;23500;53.268;8.308;2022-08-25T04:17:30;23.10;65.50
37658;DHT22;23500;53.268;8.308;2022-08-25T04:19:56;23.10;65.40
37658;DHT22;23500;53.268;8.308;2022-08-25T04:22:22;23.10;65.70
37658;DHT22;23500;53.268;8.308;2022-08-25T04:24:48;23.10;65.80
37658;DHT22;23500;53.268;8.308;2022-08-25T04:27:13;23.10;65.90
37658;DHT22;23500;53.268;8.308;2022-08-25T04:29:40;23.10;66.00
37658;DHT22;23500;53.268;8.308;2022-08-25T04:32:05;23.10;66.10
37658;DHT22;23500;53.268;8.308;2022-08-25T04:34:31;23.10;66.20
37658;DHT22;23500;53.268;8.308;2022-08-25T04:37:01;23.10;66.40
37658;DHT22;23500;53.268;8.308;2022-08-25T04:39:27;23.10;66.70
37658;DHT22;23500;53.268;8.308;2022-08-25T04:41:53;23.10;66.70
37658;DHT22;23500;53.268;8.308;2022-08-25T04:44:18;22.90;67.10
37658;DHT22;23500;53.268;8.308;2022-08-25T04:46:44;22.60;68.40
37658;DHT22;23500;53.268;8.308;2022-08-25T04:49:10;22.20;69.70
37658;DHT22;23500;53.268;8.308;2022-08-25T04:51:38;22.00;70.90
37658;DHT22;23500;53.268;8.308;2022-08-25T04:54:08;21.80;71.90
37658;DHT22;23500;53.268;8.308;2022-08-25T04:56:34;21.60;72.90
37658;DHT22;23500;53.268;8.308;2022-08-25T04:59:06;21.50;73.80
37658;DHT22;23500;53.268;8.308;2022-08-25T05:01:33;21.30;74.50
37658;DHT22;23500;53.268;8.308;2022-08-25T05:04:00;21.30;74.80
37658;DHT22;23500;53.268;8.308;2022-08-25T05:06:27;21.30;75.10
37658;DHT22;23500;53.268;8.308;2022-08-25T05:08:54;21.30;75.30
37658;DHT22;23500;53.268;8.308;2022-08-25T05:11:21;21.40;75.40
37658;DHT22;23500;53.268;8.308;2022-08-25T05:13:49;21.40;75.50
37658;DHT22;23500;53.268;8.308;2022-08-25T05:16:15;21.40;76.00
37658;DHT22;23500;53.268;8.308;2022-08-25T05:18:42;21.40;76.10
37658;DHT22;23500;53.268;8.308;2022-08-25T05:21:12;21.40;76.40
37658;DHT22;23500;53.268;8.308;2022-08-25T05:23:39;21.40;76.70
37658;DHT22;23500;53.268;8.308;2022-08-25T05:26:09;21.40;77.00
37658;DHT22;23500;53.268;8.308;2022-08-25T05:28:36;21.40;77.30
37658;DHT22;23500;53.268;8.308;2022-08-25T05:31:03;21.50;76.70
37658;DHT22;23500;53.268;8.308;2022-08-25T05:33:29;21.60;75.60
37658;DHT22;23500;53.268;8.308;2022-08-25T05:35:55;21.70;75.10
37658;DHT22;23500;53.268;8.308;2022-08-25T05:38:21;21.90;74.70
37658;DHT22;23500;53.268;8.308;2022-08-25T05:40:51;22.00;74.20
37658;DHT22;23500;53.268;8.308;2022-08-25T05:43:18;22.10;73.80
37658;DHT22;23500;53.268;8.308;2022-08-25T05:45:43;22.20;74.20
37658;DHT22;23500;53.268;8.308;2022-08-25T05:48:10;22.20;73.20
37658;DHT22;23500;53.268;8.308;2022-08-25T05:50:35;22.30;73.20
37658;DHT22;23500;53.268;8.308;2022-08-25T05:53:01;22.30;72.90
37658;DHT22;23500;53.268;8.308;2022-08-25T05:55:26;22.40;73.00
37658;DHT22;23500;53.268;8.308;2022-08-25T05:57:52;22.40;72.80
37658;DHT22;23500;53.268;8.308;2022-08-25T06:00:18;22.50;72.80
37658;DHT22;23500;53.268;8.308;2022-08-25T06:02:44;22.50;72.70
37658;DHT22;23500;53.268;8.308;2022-08-25T06:05:20;22.60;72.60
37658;DHT22;23500;53.268;8.308;2022-08-25T06:07:47;22.60;72.40
37658;DHT22;23500;53.268;8.308;2022-08-25T06:10:15;22.60;72.30
37658;DHT22;23500;53.268;8.308;2022-08-25T06:12:42;22.70;72.60
37658;DHT22;23500;53.268;8.308;2022-08-25T06:15:12;22.70;72.50
37658;DHT22;23500;53.268;8.308;2022-08-25T06:17:39;22.70;72.50
37658;DHT22;23500;53.268;8.308;2022-08-25T06:20:11;22.70;72.50
37658;DHT22;23500;53.268;8.308;2022-08-25T06:22:37;22.80;73.20
37658;DHT22;23500;53.268;8.308;2022-08-25T06:25:04;22.80;73.40
37658;DHT22;23500;53.268;8.308;2022-08-25T06:27:30;22.80;73.00
37658;DHT22;23500;53.268;8.308;2022-08-25T06:29:55;22.80;73.00
37658;DHT22;23500;53.268;8.308;2022-08-25T06:32:21;22.90;72.90
37658;DHT22;23500;53.268;8.308;2022-08-25T06:34:47;22.90;72.90
37658;DHT22;23500;53.268;8.308;2022-08-25T06:37:12;22.90;74.00
37658;DHT22;23500;53.268;8.308;2022-08-25T06:39:38;22.90;73.10
37658;DHT22;23500;53.268;8.308;2022-08-25T06:42:04;22.90;72.90
37658;DHT22;23500;53.268;8.308;2022-08-25T06:44:30;23.00;73.00
37658;DHT22;23500;53.268;8.308;2022-08-25T06:46:55;23.00;73.00
37658;DHT22;23500;53.268;8.308;2022-08-25T06:49:21;23.00;73.10
37658;DHT22;23500;53.268;8.308;2022-08-25T06:51:48;23.00;72.90
37658;DHT22;23500;53.268;8.308;2022-08-25T06:54:15;23.00;73.10
37658;DHT22;23500;53.268;8.308;2022-08-25T06:56:41;23.10;73.00
37658;DHT22;23500;53.268;8.308;2022-08-25T06:59:08;23.10;72.00
37658;DHT22;23500;53.268;8.308;2022-08-25T07:01:34;23.10;73.00
37658;DHT22;23500;53.268;8.308;2022-08-25T07:04:02;23.10;73.50
37658;DHT22;23500;53.268;8.308;2022-08-25T07:06:30;23.10;72.50
37658;DHT22;23500;53.268;8.308;2022-08-25T07:09:00;23.10;72.80
37658;DHT22;23500;53.268;8.308;2022-08-25T07:11:27;23.10;72.90
37658;DHT22;23500;53.268;8.308;2022-08-25T07:13:53;23.20;72.20
37658;DHT22;23500;53.268;8.308;2022-08-25T07:16:19;23.20;73.00
37658;DHT22;23500;53.268;8.308;2022-08-25T07:18:46;23.20;73.20
37658;DHT22;23500;53.268;8.308;2022-08-25T07:21:13;23.20;73.00
37658;DHT22;23500;53.268;8.308;2022-08-25T07:23:39;23.20;72.40
37658;DHT22;23500;53.268;8.308;2022-08-25T07:26:29;23.20;72.20
37658;DHT22;23500;53.268;8.308;2022-08-25T07:28:56;23.20;72.40
37658;DHT22;23500;53.268;8.308;2022-08-25T07:31:23;23.30;72.50
37658;DHT22;23500;53.268;8.308;2022-08-25T07:33:49;23.30;72.60
37658;DHT22;23500;53.268;8.308;2022-08-25T07:36:33;23.30;72.50
37658;DHT22;23500;53.268;8.308;2022-08-25T07:38:59;23.30;71.80
37658;DHT22;23500;53.268;8.308;2022-08-25T07:41:30;23.30;72.50
37658;DHT22;23500;53.268;8.308;2022-08-25T07:43:57;23.30;72.20
37658;DHT22;23500;53.268;8.308;2022-08-25T07:46:22;23.30;72.00
37658;DHT22;23500;53.268;8.308;2022-08-25T07:48:48;23.30;72.10
37658;DHT22;23500;53.268;8.308;2022-08-25T07:51:14;23.40;72.10
37658;DHT22;23500;53.268;8.308;2022-08-25T07:53:40;23.40;72.20
37658;DHT22;23500;53.268;8.308;2022-08-25T07:56:11;23.40;72.30
37658;DHT22;23500;53.268;8.308;2022-08-25T07:58:38;23.40;72.10
37658;DHT22;23500;53.268;8.308;2022-08-25T08:01:06;23.40;72.10
37658;DHT22;23500;53.268;8.308;2022-08-25T08:03:32;23.40;72.10
37658;DHT22;23500;53.268;8.308;2022-08-25T08:06:00;23.40;72.20
37658;DHT22;23500;53.268;8.308;2022-08-25T08:08:26;23.50;72.20
37658;DHT22;23500;53.268;8.308;2022-08-25T08:10:52;23.50;72.20
37658;DHT22;23500;53.268;8.308;2022-08-25T08:13:18;23.50;72.10
37658;DHT22;23500;53.268;8.308;2022-08-25T08:15:45;23.50;72.20
37658;DHT22;23500;53.268;8.308;2022-08-25T08:18:11;23.50;72.20
37658;DHT22;23500;53.268;8.308;2022-08-25T08:20:36;23.60;72.30
37658;DHT22;23500;53.268;8.308;2022-08-25T08:23:02;23.60;72.20
37658;DHT22;23500;53.268;8.308;2022-08-25T08:25:28;23.60;72.20
37658;DHT22;23500;53.268;8.308;2022-08-25T08:27:55;23.60;72.30
37658;DHT22;23500;53.268;8.308;2022-08-25T08:30:22;23.60;72.40
37658;DHT22;23500;53.268;8.308;2022-08-25T08:32:47;23.60;72.40
37658;DHT22;23500;53.268;8.308;2022-08-25T08:35:15;23.60;72.30
37658;DHT22;23500;53.268;8.308;2022-08-25T08:37:44;23.60;72.30
37658;DHT22;23500;53.268;8.308;2022-08-25T08:40:13;23.60;72.30
37658;DHT22;23500;53.268;8.308;2022-08-25T08:51:15;23.70;72.60
37658;DHT22;23500;53.268;8.308;2022-08-25T08:53:52;23.70;72.70
37658;DHT22;23500;53.268;8.308;2022-08-25T08:56:31;23.70;72.70
37658;DHT22;23500;53.268;8.308;2022-08-25T08:59:03;23.70;72.70
37658;DHT22;23500;53.268;8.308;2022-08-25T09:01:54;23.70;72.80
37658;DHT22;23500;53.268;8.308;2022-08-25T09:04:32;23.70;72.80
37658;DHT22;23500;53.268;8.308;2022-08-25T09:07:01;23.70;72.80
37658;DHT22;23500;53.268;8.308;2022-08-25T09:09:31;23.70;72.80
37658;DHT22;23500;53.268;8.308;2022-08-25T09:23:02;23.80;72.80
37658;DHT22;23500;53.268;8.308;2022-08-25T09:28:16;23.80;72.90
37658;DHT22;23500;53.268;8.308;2022-08-25T09:30:53;23.80;72.90
37658;DHT22;23500;53.268;8.308;2022-08-25T09:33:24;23.80;72.80
37658;DHT22;23500;53.268;8.308;2022-08-25T09:35:52;23.80;72.80
37658;DHT22;23500;53.268;8.308;2022-08-25T09:38:19;23.90;72.90
37658;DHT22;23500;53.268;8.308;2022-08-25T09:40:52;23.90;72.80
37658;DHT22;23500;53.268;8.308;2022-08-25T09:43:23;23.90;72.80
37658;DHT22;23500;53.268;8.308;2022-08-25T09:46:14;23.90;72.80
37658;DHT22;23500;53.268;8.308;2022-08-25T09:48:47;23.90;72.80
37658;DHT22;23500;53.268;8.308;2022-08-25T09:53:59;23.90;72.70
37658;DHT22;23500;53.268;8.308;2022-08-25T09:56:30;23.90;72.60
37658;DHT22;23500;53.268;8.308;2022-08-25T09:59:21;23.90;72.60
37658;DHT22;23500;53.268;8.308;2022-08-25T10:01:58;23.90;72.50
37658;DHT22;23500;53.268;8.308;2022-08-25T10:04:35;23.90;72.50
37658;DHT22;23500;53.268;8.308;2022-08-25T10:07:18;24.00;72.50
37658;DHT22;23500;53.268;8.308;2022-08-25T10:10:00;24.00;72.50
37658;DHT22;23500;53.268;8.308;2022-08-25T10:12:38;24.00;72.40
37658;DHT22;23500;53.268;8.308;2022-08-25T10:17:45;24.00;72.20
37658;DHT22;23500;53.268;8.308;2022-08-25T10:20:23;24.00;72.20
37658;DHT22;23500;53.268;8.308;2022-08-25T10:22:50;24.00;72.10
37658;DHT22;23500;53.268;8.308;2022-08-25T10:25:30;24.00;71.90
37658;DHT22;23500;53.268;8.308;2022-08-25T10:31:06;24.00;71.90
37658;DHT22;23500;53.268;8.308;2022-08-25T10:36:39;24.00;71.70
37658;DHT22;23500;53.268;8.308;2022-08-25T10:39:11;24.00;71.60
37658;DHT22;23500;53.268;8.308;2022-08-25T10:42:02;24.00;71.50
37658;DHT22;23500;53.268;8.308;2022-08-25T10:44:38;24.10;71.50
37658;DHT22;23500;53.268;8.308;2022-08-25T10:50:19;24.10;71.30
37658;DHT22;23500;53.268;8.308;2022-08-25T10:55:58;24.10;71.20
37658;DHT22;23500;53.268;8.308;2022-08-25T10:58:47;24.10;71.00
37658;DHT22;23500;53.268;8.308;2022-08-25T11:04:04;24.10;70.80
37658;DHT22;23500;53.268;8.308;2022-08-25T11:06:49;24.10;70.70
37658;DHT22;23500;53.268;8.308;2022-08-25T11:09:20;24.20;70.60
37658;DHT22;23500;53.268;8.308;2022-08-25T11:11:52;24.20;70.50
37658;DHT22;23500;53.268;8.308;2022-08-25T11:14:21;24.20;71.10
37658;DHT22;23500;53.268;8.308;2022-08-25T11:16:58;24.20;70.30
37658;DHT22;23500;53.268;8.308;2022-08-25T11:19:38;24.20;70.30
37658;DHT22;23500;53.268;8.308;2022-08-25T11:28:11;24.20;70.20
37658;DHT22;23500;53.268;8.308;2022-08-25T11:30:39;24.20;70.20
37658;DHT22;23500;53.268;8.308;2022-08-25T11:33:05;24.20;70.30
37658;DHT22;23500;53.268;8.308;2022-08-25T11:35:46;24.20;70.20
37658;DHT22;23500;53.268;8.308;2022-08-25T11:44:34;24.20;70.10
37658;DHT22;23500;53.268;8.308;2022-08-25T11:51:59;24.20;70.10
37658;DHT22;23500;53.268;8.308;2022-08-25T11:56:59;24.30;70.10
37658;DHT22;23500;53.268;8.308;2022-08-25T12:26:12;24.30;69.80
37658;DHT22;23500;53.268;8.308;2022-08-25T12:37:24;24.40;69.80
37658;DHT22;23500;53.268;8.308;2022-08-25T12:42:35;24.40;69.80
37658;DHT22;23500;53.268;8.308;2022-08-25T12:45:10;24.40;69.70
37658;DHT22;23500;53.268;8.308;2022-08-25T12:47:39;24.40;69.70
37658;DHT22;23500;53.268;8.308;2022-08-25T12:50:38;24.40;69.70
37658;DHT22;23500;53.268;8.308;2022-08-25T12:56:25;24.40;69.60
37658;DHT22;23500;53.268;8.308;2022-08-25T13:16:01;24.50;69.50
37658;DHT22;23500;53.268;8.308;2022-08-25T13:18:30;24.50;69.50
37658;DHT22;23500;53.268;8.308;2022-08-25T13:23:35;24.50;69.40
37658;DHT22;23500;53.268;8.308;2022-08-25T13:26:03;24.50;69.30
37658;DHT22;23500;53.268;8.308;2022-08-25T13:28:33;24.50;69.30
37658;DHT22;23500;53.268;8.308;2022-08-25T13:31:07;24.50;69.20
37658;DHT22;23500;53.268;8.308;2022-08-25T13:33:33;24.50;69.20
37658;DHT22;23500;53.268;8.308;2022-08-25T13:36:00;24.50;69.20
37658;DHT22;23500;53.268;8.308;2022-08-25T13:38:47;24.50;69.10
37658;DHT22;23500;53.268;8.308;2022-08-25T13:41:18;24.60;69.20
37658;DHT22;23500;53.268;8.308;2022-08-25T13:43:44;24.60;69.20
37658;DHT22;23500;53.268;8.308;2022-08-25T13:46:10;24.60;69.20
37658;DHT22;23500;53.268;8.308;2022-08-25T13:48:38;24.60;69.20
37658;DHT22;23500;53.268;8.308;2022-08-25T13:53:33;24.60;69.20
37658;DHT22;23500;53.268;8.308;2022-08-25T13:56:00;24.60;69.20
37658;DHT22;23500;53.268;8.308;2022-08-25T13:58:29;24.60;69.20
37658;DHT22;23500;53.268;8.308;2022-08-25T14:01:41;24.60;69.20
37658;DHT22;23500;53.268;8.308;2022-08-25T14:07:07;24.60;69.20
37658;DHT22;23500;53.268;8.308;2022-08-25T14:12:35;24.60;69.20
37658;DHT22;23500;53.268;8.308;2022-08-25T14:17:57;24.70;69.30
37658;DHT22;23500;53.268;8.308;2022-08-25T14:20:26;24.70;69.30
37658;DHT22;23500;53.268;8.308;2022-08-25T14:23:04;24.70;69.30
37658;DHT22;23500;53.268;8.308;2022-08-25T14:25:31;24.70;69.30
37658;DHT22;23500;53.268;8.308;2022-08-25T14:28:03;24.70;69.30
37658;DHT22;23500;53.268;8.308;2022-08-25T14:30:33;24.70;69.30
37658;DHT22;23500;53.268;8.308;2022-08-25T14:33:00;24.70;69.20
37658;DHT22;23500;53.268;8.308;2022-08-25T14:35:26;24.70;69.20
37658;DHT22;23500;53.268;8.308;2022-08-25T14:37:54;24.70;69.10
37658;DHT22;23500;53.268;8.308;2022-08-25T14:40:19;24.70;69.10
37658;DHT22;23500;53.268;8.308;2022-08-25T14:42:47;24.70;69.00
37658;DHT22;23500;53.268;8.308;2022-08-25T14:45:14;24.70;69.00
37658;DHT22;23500;53.268;8.308;2022-08-25T14:47:41;24.70;69.00
37658;DHT22;23500;53.268;8.308;2022-08-25T14:50:07;24.70;69.00
37658;DHT22;23500;53.268;8.308;2022-08-25T14:52:34;24.70;69.00
37658;DHT22;23500;53.268;8.308;2022-08-25T14:55:00;24.70;68.90
37658;DHT22;23500;53.268;8.308;2022-08-25T14:57:25;24.70;68.90
37658;DHT22;23500;53.268;8.308;2022-08-25T14:59:51;24.80;68.90
37658;DHT22;23500;53.268;8.308;2022-08-25T15:02:19;24.80;68.90
37658;DHT22;23500;53.268;8.308;2022-08-25T15:04:51;24.80;68.90
37658;DHT22;23500;53.268;8.308;2022-08-25T15:07:18;24.80;68.90
37658;DHT22;23500;53.268;8.308;2022-08-25T15:10:03;24.80;68.90
37658;DHT22;23500;53.268;8.308;2022-08-25T15:12:29;24.80;69.60
37658;DHT22;23500;53.268;8.308;2022-08-25T15:14:56;24.80;69.00
37658;DHT22;23500;53.268;8.308;2022-08-25T15:17:22;24.80;69.00
37658;DHT22;23500;53.268;8.308;2022-08-25T15:19:48;24.80;69.00
37658;DHT22;23500;53.268;8.308;2022-08-25T15:22:13;24.80;69.00
37658;DHT22;23500;53.268;8.308;2022-08-25T15:24:39;24.80;69.00
37658;DHT22;23500;53.268;8.308;2022-08-25T15:27:06;24.80;69.00
37658;DHT22;23500;53.268;8.308;2022-08-25T15:29:34;24.80;69.00
37658;DHT22;23500;53.268;8.308;2022-08-25T15:32:03;24.80;69.00
37658;DHT22;23500;53.268;8.308;2022-08-25T15:34:29;24.80;68.90
37658;DHT22;23500;53.268;8.308;2022-08-25T15:36:59;24.80;69.00
37658;DHT22;23500;53.268;8.308;2022-08-25T15:39:30;24.80;69.00
37658;DHT22;23500;53.268;8.308;2022-08-25T15:41:55;24.80;69.00
37658;DHT22;23500;53.268;8.308;2022-08-25T15:44:21;24.80;68.90
37658;DHT22;23500;53.268;8.308;2022-08-25T15:46:47;24.80;68.90
37658;DHT22;23500;53.268;8.308;2022-08-25T15:49:13;24.80;68.90
37658;DHT22;23500;53.268;8.308;2022-08-25T15:51:39;24.80;69.00
37658;DHT22;23500;53.268;8.308;2022-08-25T15:54:05;24.80;68.90
37658;DHT22;23500;53.268;8.308;2022-08-25T15:56:31;24.90;69.00
37658;DHT22;23500;53.268;8.308;2022-08-25T15:58:56;24.80;68.90
37658;DHT22;23500;53.268;8.308;2022-08-25T16:01:25;24.90;69.00
37658;DHT22;23500;53.268;8.308;2022-08-25T16:03:52;24.80;68.90
37658;DHT22;23500;53.268;8.308;2022-08-25T16:06:18;24.80;68.90
37658;DHT22;23500;53.268;8.308;2022-08-25T16:08:44;24.80;68.90
37658;DHT22;23500;53.268;8.308;2022-08-25T16:11:24;24.90;69.00
37658;DHT22;23500;53.268;8.308;2022-08-25T16:13:51;24.90;68.90
37658;DHT22;23500;53.268;8.308;2022-08-25T16:16:18;24.90;68.90
37658;DHT22;23500;53.268;8.308;2022-08-25T16:18:45;24.90;69.00
37658;DHT22;23500;53.268;8.308;2022-08-25T16:21:14;24.90;69.00
37658;DHT22;23500;53.268;8.308;2022-08-25T16:23:40;24.90;69.00
37658;DHT22;23500;53.268;8.308;2022-08-25T16:26:07;24.90;69.20
37658;DHT22;23500;53.268;8.308;2022-08-25T16:28:34;24.90;69.30
37658;DHT22;23500;53.268;8.308;2022-08-25T16:31:01;24.90;69.40
37658;DHT22;23500;53.268;8.308;2022-08-25T16:33:26;24.90;69.40
37658;DHT22;23500;53.268;8.308;2022-08-25T16:35:52;24.90;69.40
37658;DHT22;23500;53.268;8.308;2022-08-25T16:38:18;24.90;69.50
37658;DHT22;23500;53.268;8.308;2022-08-25T16:40:44;24.90;69.50
37658;DHT22;23500;53.268;8.308;2022-08-25T16:43:10;25.00;69.60
37658;DHT22;23500;53.268;8.308;2022-08-25T16:45:36;24.90;69.70
37658;DHT22;23500;53.268;8.308;2022-08-25T16:48:04;25.00;69.80
37658;DHT22;23500;53.268;8.308;2022-08-25T16:50:30;24.90;69.80
37658;DHT22;23500;53.268;8.308;2022-08-25T16:52:56;24.90;69.90
37658;DHT22;23500;53.268;8.308;2022-08-25T16:56:01;25.00;70.00
37658;DHT22;23500;53.268;8.308;2022-08-25T16:58:27;25.00;70.20
37658;DHT22;23500;53.268;8.308;2022-08-25T17:00:53;24.90;70.20
37658;DHT22;23500;53.268;8.308;2022-08-25T17:03:18;25.00;70.30
37658;DHT22;23500;53.268;8.308;2022-08-25T17:05:44;25.00;70.40
37658;DHT22;23500;53.268;8.308;2022-08-25T17:08:10;25.00;71.10
37658;DHT22;23500;53.268;8.308;2022-08-25T17:11:16;25.00;70.40
37658;DHT22;23500;53.268;8.308;2022-08-25T17:13:49;25.00;70.40
37658;DHT22;23500;53.268;8.308;2022-08-25T17:16:17;25.00;70.60
37658;DHT22;23500;53.268;8.308;2022-08-25T17:18:43;25.00;70.40
37658;DHT22;23500;53.268;8.308;2022-08-25T17:21:11;25.00;70.50
37658;DHT22;23500;53.268;8.308;2022-08-25T17:23:39;25.00;70.60
37658;DHT22;23500;53.268;8.308;2022-08-25T17:26:05;25.00;70.40
37658;DHT22;23500;53.268;8.308;2022-08-25T17:28:32;25.00;70.30
37658;DHT22;23500;53.268;8.308;2022-08-25T17:30:59;25.00;70.60
37658;DHT22;23500;53.268;8.308;2022-08-25T17:33:25;25.00;70.20
37658;DHT22;23500;53.268;8.308;2022-08-25T17:35:52;25.00;70.00
37658;DHT22;23500;53.268;8.308;2022-08-25T17:38:20;25.00;70.00
37658;DHT22;23500;53.268;8.308;2022-08-25T17:40:51;25.00;70.00
37658;DHT22;23500;53.268;8.308;2022-08-25T17:43:19;25.00;69.80
37658;DHT22;23500;53.268;8.308;2022-08-25T17:45:45;25.00;69.70
37658;DHT22;23500;53.268;8.308;2022-08-25T17:48:10;25.00;69.80
37658;DHT22;23500;53.268;8.308;2022-08-25T17:50:38;24.90;69.70
37658;DHT22;23500;53.268;8.308;2022-08-25T17:53:06;25.00;69.60
37658;DHT22;23500;53.268;8.308;2022-08-25T17:55:31;24.90;69.50
37658;DHT22;23500;53.268;8.308;2022-08-25T17:57:58;24.90;69.50
37658;DHT22;23500;53.268;8.308;2022-08-25T18:00:23;25.00;69.50
37658;DHT22;23500;53.268;8.308;2022-08-25T18:02:49;25.00;69.40
37658;DHT22;23500;53.268;8.308;2022-08-25T18:05:16;24.90;69.40
37658;DHT22;23500;53.268;8.308;2022-08-25T18:07:42;24.90;69.40